首页
METAR-TAF:

METAR-TAF

机场 :

南京禄口国际机场

南京, 中华人民共和国

纬度: 32-00N, 经度: 118-48E, 海拔: 12米

当前天气观测

该预报发布于24分钟前的20:00 UTC
风速2节,风向多变
温度 22°C
湿度 100%
气压 1004 hPa
能见度10公里或以上
1500米以下无云,无积雨云

METAR: ZSNJ 232000Z VRB01MPS CAVOK 22/22 Q1004 NOSIG

时间: 04:24 (20:24 UTC)

预报

该预报发布于5小时和21分钟前的15:03 UTC
预报有效从23日的 18点(UTC)到 24日的 18点(UTC)
风速8节,风向西转西南
能見度: 3500
散云层高于3000英尺
短暂存在
从 24日的 06点(UTC)到 24日的 12点(UTC)
少量云层高于3300英尺, 积雨云.
雷暴, 雨,

TAF: ZSNJ 231503Z 2318/2418 25004MPS 3500 HZ SCT030 TX29/2406Z TN22/2321Z TEMPO 2406/2412 TSRA FEW033CB

超过4000个机场的气象观测和天气预报(METAR&TAF报告)。

可查询的气象台以黄色和红色小点在地图上表示。

将鼠标移到小点上方,可查看气象台名称。

然后点击查看天气观测和预报。

如需切换地图:点击带黑十字的绿色按钮放大地图;点击带横线的绿色按钮缩小地图;或者点击绿色箭头查看邻近地区的地图。


METAR-TAF: